Time;durP1;ratioP1;P1;durP2;ratioP2;P2;SDS_P1;SDS_P2;PMS_P1;PMS_P2;Temp;Humidity;BMP_temperature;BMP_pressure;BME280_temperature;BME280_humidity;BME280_pressure;Samples;Min_cycle;Max_cycle;Signal;HPM_P1;HPM_P2
2022/10/18 00:01:00;;;;;;;48.40;28.57;;;12.00;99.90;;;;;;10073767;29;20244;-79
2022/10/18 00:06:04;;;;;;;46.07;27.93;;;11.70;99.90;;;;;;10074233;29;20377;-79
2022/10/18 00:11:07;;;;;;;51.30;28.53;;;11.40;99.90;;;;;;10057824;29;20243;-79
2022/10/18 00:16:13;;;;;;;46.23;28.33;;;11.30;99.90;;;;;;10090604;29;20620;-79
2022/10/18 00:21:18;;;;;;;45.70;29.33;;;11.30;99.90;;;;;;10074172;29;20766;-79
2022/10/18 00:26:24;;;;;;;39.00;25.27;;;11.20;99.90;;;;;;10090012;29;20330;-79
2022/10/18 00:31:31;;;;;;;46.87;27.47;;;10.90;99.90;;;;;;10055200;29;20697;-79
2022/10/18 00:36:34;;;;;;;51.47;28.70;;;11.00;99.90;;;;;;10073813;29;20317;-79
2022/10/18 00:41:37;;;;;;;46.63;30.00;;;11.20;99.90;;;;;;10088313;29;20214;-79
2022/10/18 00:46:46;;;;;;;44.83;29.73;;;11.30;99.90;;;;;;10071483;29;20279;-79
2022/10/18 00:51:51;;;;;;;50.20;30.83;;;11.30;99.90;;;;;;10087846;29;20226;-80
2022/10/18 00:56:54;;;;;;;46.33;28.73;;;11.20;99.90;;;;;;10086709;29;21070;-80
2022/10/18 01:01:56;;;;;;;48.90;29.33;;;11.20;99.90;;;;;;10072271;29;20241;-80
2022/10/18 01:06:58;;;;;;;50.97;30.00;;;11.20;99.90;;;;;;10072672;29;20621;-79
2022/10/18 01:12:46;;;;;;;50.50;29.47;;;11.30;99.90;;;;;;10088958;29;20239;-79
2022/10/18 01:17:51;;;;;;;43.90;27.40;;;11.30;99.90;;;;;;10090308;29;20292;-79
2022/10/18 01:23:06;;;;;;;49.93;29.60;;;11.30;99.90;;;;;;10087055;29;20249;-79
2022/10/18 01:28:28;;;;;;;52.13;29.77;;;11.20;99.90;;;;;;10094274;29;20796;-79
2022/10/18 01:33:49;;;;;;;45.30;29.10;;;11.40;99.90;;;;;;10089923;29;20262;-80
2022/10/18 01:38:56;;;;;;;43.30;28.43;;;11.30;99.90;;;;;;10060108;29;20248;-79
2022/10/18 01:44:01;;;;;;;49.03;29.17;;;11.30;99.90;;;;;;10093443;29;20328;-79
2022/10/18 01:49:04;;;;;;;51.13;30.07;;;11.20;99.90;;;;;;10093903;29;20237;-79
2022/10/18 01:54:08;;;;;;;42.10;26.93;;;11.10;99.90;;;;;;10074924;29;20237;-79
2022/10/18 01:59:19;;;;;;;54.23;30.20;;;10.90;99.90;;;;;;10074316;29;20309;-79
2022/10/18 02:04:21;;;;;;;42.07;27.73;;;11.00;99.90;;;;;;10094166;29;20770;-79
2022/10/18 02:09:37;;;;;;;45.97;28.90;;;11.00;99.90;;;;;;10090543;29;20288;-79
2022/10/18 02:14:42;;;;;;;54.40;30.40;;;10.80;99.90;;;;;;10091280;29;20232;-79
2022/10/18 02:19:49;;;;;;;48.50;29.03;;;10.70;99.90;;;;;;10093056;29;20237;-79
2022/10/18 02:24:55;;;;;;;48.93;29.77;;;10.70;99.90;;;;;;10076010;29;20270;-79
2022/10/18 02:29:58;;;;;;;46.20;28.17;;;10.50;99.90;;;;;;10077030;29;20261;-79
2022/10/18 02:35:10;;;;;;;45.20;28.80;;;10.50;99.90;;;;;;10076173;29;20297;-79
2022/10/18 02:40:13;;;;;;;49.73;28.57;;;10.40;99.90;;;;;;10076782;29;20254;-79
2022/10/18 02:45:16;;;;;;;42.93;26.13;;;10.40;99.90;;;;;;10077450;29;20301;-79
2022/10/18 02:50:18;;;;;;;42.20;25.77;;;10.20;99.90;;;;;;10076564;29;20663;-79
2022/10/18 02:55:21;;;;;;;39.83;27.23;;;10.10;99.90;;;;;;10076476;29;20217;-80
2022/10/18 03:00:23;;;;;;;41.77;27.07;;;10.10;99.90;;;;;;10093773;29;20249;-79
2022/10/18 03:05:25;;;;;;;42.97;26.40;;;10.10;99.90;;;;;;10093797;29;20336;-79
2022/10/18 03:10:28;;;;;;;35.80;24.87;;;9.90;99.90;;;;;;10087746;29;20244;-79
2022/10/18 03:15:30;;;;;;;40.97;26.90;;;9.80;99.90;;;;;;10093996;29;20229;-79
2022/10/18 03:20:33;;;;;;;42.30;25.40;;;9.70;99.90;;;;;;10094021;29;20240;-79
2022/10/18 03:25:35;;;;;;;35.30;22.90;;;9.60;99.90;;;;;;10092506;29;20289;-80
2022/10/18 03:30:38;;;;;;;36.53;24.00;;;9.50;99.90;;;;;;10074865;29;20245;-80
2022/10/18 03:35:41;;;;;;;38.00;23.83;;;9.50;99.90;;;;;;10092284;29;20244;-80
2022/10/18 03:40:43;;;;;;;45.00;28.23;;;9.60;99.90;;;;;;10075492;29;20212;-80
2022/10/18 03:45:45;;;;;;;40.30;25.63;;;9.70;99.90;;;;;;10075881;29;20248;-80
2022/10/18 03:50:48;;;;;;;40.63;23.27;;;9.30;99.90;;;;;;10078591;29;20234;-79
2022/10/18 03:55:52;;;;;;;37.83;23.17;;;9.30;99.90;;;;;;10075269;29;20248;-80
2022/10/18 04:00:54;;;;;;;34.17;22.70;;;9.30;99.90;;;;;;10091695;29;20620;-80
2022/10/18 04:05:59;;;;;;;40.93;27.40;;;9.30;99.90;;;;;;10073713;29;20934;-79
2022/10/18 04:11:07;;;;;;;41.97;26.77;;;9.40;99.90;;;;;;10058477;29;20281;-79
2022/10/18 04:16:09;;;;;;;47.77;27.67;;;9.50;99.90;;;;;;10091998;29;20240;-80
2022/10/18 04:21:12;;;;;;;52.70;31.93;;;9.50;99.90;;;;;;10090106;29;20281;-79
2022/10/18 04:26:17;;;;;;;42.13;25.70;;;9.60;99.90;;;;;;10089839;29;20344;-79
2022/10/18 04:31:20;;;;;;;38.70;25.70;;;9.60;99.90;;;;;;10074390;29;20301;-80
2022/10/18 04:36:22;;;;;;;45.43;28.37;;;9.40;99.90;;;;;;10074063;29;20629;-79
2022/10/18 04:41:25;;;;;;;48.37;28.67;;;9.50;99.90;;;;;;10061628;29;20249;-80
2022/10/18 04:46:27;;;;;;;47.50;28.53;;;9.60;99.90;;;;;;10036078;29;20253;-80
2022/10/18 04:51:30;;;;;;;47.83;28.63;;;9.60;99.90;;;;;;10068968;29;20273;-79
2022/10/18 04:56:32;;;;;;;42.97;27.03;;;9.60;99.90;;;;;;10078110;29;20249;-79
2022/10/18 05:01:35;;;;;;;47.10;27.50;;;9.80;99.90;;;;;;10062506;29;20241;-79
2022/10/18 05:06:38;;;;;;;50.00;27.47;;;9.90;99.90;;;;;;10081633;29;20316;-79
2022/10/18 05:11:40;;;;;;;38.57;24.17;;;10.10;99.90;;;;;;10080068;29;20639;-79
2022/10/18 05:16:42;;;;;;;43.53;27.23;;;10.00;99.90;;;;;;10081608;29;20347;-79
2022/10/18 05:21:45;;;;;;;54.27;30.67;;;10.10;99.90;;;;;;10096630;29;20704;-80
2022/10/18 05:26:47;;;;;;;54.17;31.07;;;10.20;99.90;;;;;;10076096;29;20276;-80
2022/10/18 05:31:50;;;;;;;48.37;29.63;;;10.30;99.90;;;;;;10096829;29;20654;-80
2022/10/18 05:36:52;;;;;;;45.87;29.20;;;10.50;99.90;;;;;;10096231;29;20699;-81
2022/10/18 05:41:55;;;;;;;53.93;33.00;;;11.90;99.90;;;;;;10093998;29;20256;-80
2022/10/18 05:46:57;;;;;;;68.47;36.83;;;11.20;99.90;;;;;;10079703;29;20679;-80
2022/10/18 05:52:00;;;;;;;74.13;40.97;;;10.90;99.90;;;;;;10097776;29;20234;-80
2022/10/18 05:57:02;;;;;;;80.87;43.47;;;11.00;99.90;;;;;;10095220;29;20240;-80
2022/10/18 06:02:05;;;;;;;74.90;40.23;;;11.00;99.90;;;;;;10095808;29;20570;-80
2022/10/18 06:07:10;;;;;;;81.23;39.73;;;11.20;99.90;;;;;;10096570;29;20298;-80
2022/10/18 06:12:12;;;;;;;79.03;42.97;;;11.20;99.90;;;;;;10095240;29;20662;-80
2022/10/18 06:17:15;;;;;;;80.83;42.40;;;11.30;99.90;;;;;;10093184;29;20286;-80
2022/10/18 06:22:17;;;;;;;77.83;41.97;;;11.40;99.90;;;;;;10075613;29;20235;-80
2022/10/18 06:27:19;;;;;;;73.70;41.53;;;11.60;99.90;;;;;;10078426;29;20275;-80
2022/10/18 06:32:22;;;;;;;91.47;46.43;;;11.80;99.90;;;;;;10062945;29;20288;-80
2022/10/18 06:37:24;;;;;;;85.80;44.57;;;12.00;99.90;;;;;;10093435;29;20285;-80
2022/10/18 06:42:27;;;;;;;75.93;42.50;;;12.00;99.90;;;;;;10062716;29;20314;-80
2022/10/18 06:47:30;;;;;;;77.03;39.73;;;12.10;99.90;;;;;;10094919;29;20262;-80
2022/10/18 06:52:32;;;;;;;83.27;44.77;;;12.20;99.90;;;;;;10073964;29;20232;-80
2022/10/18 06:57:35;;;;;;;78.97;45.83;;;12.40;99.90;;;;;;10045402;29;20648;-80
2022/10/18 07:02:40;;;;;;;68.87;43.07;;;12.50;99.90;;;;;;10092399;29;20234;-80
2022/10/18 07:07:42;;;;;;;66.23;42.50;;;12.50;99.90;;;;;;10091967;29;20269;-79
2022/10/18 07:12:44;;;;;;;76.80;44.83;;;12.50;99.90;;;;;;10074545;29;21175;-78
2022/10/18 07:17:47;;;;;;;77.27;44.23;;;12.60;99.90;;;;;;10088518;29;20247;-80
2022/10/18 07:22:54;;;;;;;85.37;47.37;;;12.80;99.90;;;;;;10075964;29;20391;-79
2022/10/18 07:27:56;;;;;;;89.50;48.93;;;12.90;99.90;;;;;;10086387;29;20276;-79
2022/10/18 07:32:59;;;;;;;83.73;47.67;;;13.00;99.90;;;;;;10070882;29;20251;-79
2022/10/18 07:38:01;;;;;;;91.30;49.77;;;13.00;99.90;;;;;;10089077;29;20652;-79
2022/10/18 07:43:04;;;;;;;88.30;47.73;;;13.10;99.90;;;;;;10087489;29;20255;-79
2022/10/18 07:48:08;;;;;;;85.83;47.17;;;13.30;99.90;;;;;;10090171;29;20308;-81
2022/10/18 07:53:11;;;;;;;93.27;48.80;;;13.40;99.90;;;;;;10070397;29;20728;-79
2022/10/18 07:58:13;;;;;;;83.20;46.00;;;13.60;99.90;;;;;;10068953;29;20232;-79
2022/10/18 08:03:16;;;;;;;75.30;46.37;;;13.60;99.90;;;;;;10084009;29;20345;-80
2022/10/18 08:08:19;;;;;;;70.73;41.60;;;13.80;99.90;;;;;;10084315;29;20333;-80
2022/10/18 08:13:22;;;;;;;62.43;37.00;;;13.90;99.90;;;;;;10086446;29;20618;-80
2022/10/18 08:18:24;;;;;;;64.63;38.73;;;14.10;99.90;;;;;;10068274;29;20243;-81
2022/10/18 08:23:27;;;;;;;64.17;39.10;;;14.10;99.90;;;;;;10085999;29;20240;-81
2022/10/18 08:28:30;;;;;;;57.83;38.23;;;14.10;99.90;;;;;;10080418;29;20316;-80
2022/10/18 08:33:34;;;;;;;58.33;36.30;;;14.10;99.90;;;;;;10058885;29;20233;-80
2022/10/18 08:38:38;;;;;;;62.23;36.17;;;14.20;99.90;;;;;;10082118;29;20241;-80
2022/10/18 08:43:52;;;;;;;56.13;35.30;;;14.20;99.90;;;;;;10067393;29;20297;-81
2022/10/18 08:48:55;;;;;;;60.47;36.57;;;14.30;99.90;;;;;;10068336;29;20232;-80
2022/10/18 08:54:21;;;;;;;59.57;36.53;;;14.40;99.90;;;;;;10068978;29;20249;-80
2022/10/18 08:59:24;;;;;;;61.40;34.17;;;14.50;99.90;;;;;;10084534;29;20674;-80
2022/10/18 09:04:53;;;;;;;52.20;33.80;;;14.60;99.90;;;;;;10084744;29;20688;-80
2022/10/18 09:10:20;;;;;;;52.53;32.77;;;14.60;99.90;;;;;;10083058;29;20281;-80
2022/10/18 09:15:41;;;;;;;59.97;35.17;;;14.90;99.90;;;;;;10084408;29;20822;-79
2022/10/18 09:20:57;;;;;;;51.13;31.97;;;14.90;99.90;;;;;;10083984;29;20316;-79
2022/10/18 09:26:12;;;;;;;53.43;32.97;;;15.10;99.90;;;;;;10084798;29;20268;-79
2022/10/18 09:31:24;;;;;;;55.30;32.90;;;15.20;99.90;;;;;;10083269;29;20232;-80
2022/10/18 09:36:36;;;;;;;59.97;35.43;;;15.30;99.90;;;;;;10078315;29;20300;-81
2022/10/18 09:41:39;;;;;;;59.57;36.10;;;15.10;99.90;;;;;;10082657;29;20291;-80
2022/10/18 09:46:48;;;;;;;47.17;29.97;;;14.90;99.90;;;;;;10087328;29;20252;-80
2022/10/18 09:51:53;;;;;;;70.00;40.10;;;15.30;99.90;;;;;;10093242;29;20648;-80
2022/10/18 09:57:04;;;;;;;70.13;39.00;;;15.00;99.90;;;;;;10094516;29;20296;-80
2022/10/18 10:02:13;;;;;;;68.60;41.30;;;14.80;99.90;;;;;;10075391;29;20241;-80
2022/10/18 10:07:22;;;;;;;70.93;40.70;;;14.70;99.90;;;;;;10091637;29;20264;-80
2022/10/18 10:12:34;;;;;;;73.53;37.47;;;14.70;99.90;;;;;;10074493;29;20244;-80
2022/10/18 10:17:36;;;;;;;50.30;30.20;;;14.60;99.90;;;;;;10094204;29;20285;-80
2022/10/18 10:22:41;;;;;;;42.83;27.13;;;14.70;99.90;;;;;;10091511;29;20284;-80
2022/10/18 10:27:44;;;;;;;56.23;27.23;;;14.80;99.90;;;;;;10090820;29;20662;-80
2022/10/18 10:32:48;;;;;;;44.63;28.13;;;14.70;99.90;;;;;;10074991;29;20642;-80
2022/10/18 10:37:52;;;;;;;49.73;29.87;;;14.60;99.90;;;;;;10090962;29;20705;-81
2022/10/18 10:43:28;;;;;;;42.43;27.90;;;14.60;99.90;;;;;;10073735;29;20714;-81
2022/10/18 10:48:57;;;;;;;44.50;27.77;;;14.60;99.90;;;;;;10040403;29;20698;-80
2022/10/18 10:54:24;;;;;;;46.23;29.00;;;14.90;99.90;;;;;;10083555;29;20800;-81
2022/10/18 10:59:31;;;;;;;47.37;28.93;;;14.70;99.90;;;;;;10068395;29;20292;-81
2022/10/18 11:04:33;;;;;;;50.20;30.37;;;14.60;99.90;;;;;;9729226;29;10000222;-81
2022/10/18 11:10:07;;;;;;;49.27;30.23;;;14.60;99.90;;;;;;10086072;29;20233;-82
2022/10/18 11:15:10;;;;;;;49.23;31.87;;;14.60;99.90;;;;;;10084968;29;20654;-81
2022/10/18 11:20:31;;;;;;;45.37;29.47;;;14.60;99.90;;;;;;10084020;29;20296;-81
2022/10/18 11:25:51;;;;;;;52.40;28.63;;;14.60;99.90;;;;;;10083932;29;20708;-81
2022/10/18 11:31:30;;;;;;;45.43;28.23;;;14.60;99.90;;;;;;10067587;29;20239;-81
2022/10/18 11:36:38;;;;;;;34.50;23.60;;;14.60;99.90;;;;;;10084582;29;20634;-81
2022/10/18 11:42:38;;;;;;;33.83;21.33;;;14.60;99.90;;;;;;10036990;29;20264;-81
2022/10/18 11:48:23;;;;;;;31.53;20.47;;;14.50;99.90;;;;;;10024697;29;20365;-81
2022/10/18 11:53:34;;;;;;;21.20;15.63;;;14.40;99.90;;;;;;10049594;29;20296;-81
2022/10/18 11:58:41;;;;;;;14.47;10.87;;;14.30;99.90;;;;;;10045510;29;20253;-81
2022/10/18 12:04:13;;;;;;;16.23;11.03;;;14.30;99.90;;;;;;10030543;29;20694;-81
2022/10/18 12:09:30;;;;;;;13.53;8.87;;;14.10;99.90;;;;;;10044147;29;20265;-81
2022/10/18 12:14:39;;;;;;;9.67;7.17;;;14.00;99.90;;;;;;10030048;29;20248;-83
2022/10/18 12:19:42;;;;;;;13.03;6.87;;;13.80;99.90;;;;;;10031303;29;20253;-81
2022/10/18 12:24:44;;;;;;;10.07;6.10;;;13.70;99.90;;;;;;10031020;29;20704;-82
2022/10/18 12:29:54;;;;;;;8.03;6.17;;;13.60;99.90;;;;;;10032051;29;20265;-82
2022/10/18 12:35:03;;;;;;;9.63;6.10;;;13.60;99.90;;;;;;10030613;29;20293;-81
2022/10/18 12:40:23;;;;;;;9.60;6.70;;;13.60;99.90;;;;;;10015573;29;20231;-82
2022/10/18 12:45:34;;;;;;;8.30;5.43;;;13.60;99.90;;;;;;10048427;29;20264;-81
2022/10/18 12:50:41;;;;;;;6.50;5.07;;;13.60;99.90;;;;;;10048926;29;20236;-81
2022/10/18 12:55:48;;;;;;;6.50;4.53;;;13.60;99.90;;;;;;10048895;29;20240;-81
2022/10/18 13:00:52;;;;;;;6.03;5.30;;;13.60;99.90;;;;;;10049749;29;20245;-82
2022/10/18 13:05:59;;;;;;;15.70;9.67;;;13.60;99.90;;;;;;10049649;29;20257;-81
2022/10/18 13:11:07;;;;;;;12.53;7.03;;;13.80;99.90;;;;;;10045756;29;20237;-81
2022/10/18 13:16:21;;;;;;;11.30;6.97;;;13.70;99.90;;;;;;10048933;29;20655;-81
2022/10/18 13:21:33;;;;;;;12.43;7.90;;;13.70;99.90;;;;;;10035789;29;20294;-81
2022/10/18 13:26:57;;;;;;;12.07;7.90;;;13.80;99.90;;;;;;10050884;29;20268;-82
2022/10/18 13:32:34;;;;;;;12.50;8.50;;;13.70;99.90;;;;;;10053295;29;20273;-81
2022/10/18 13:37:36;;;;;;;12.03;8.27;;;13.70;99.90;;;;;;10052244;29;20268;-81
2022/10/18 13:42:39;;;;;;;12.30;8.30;;;13.80;99.90;;;;;;10039073;29;20281;-81
2022/10/18 13:47:41;;;;;;;13.47;8.70;;;13.70;99.90;;;;;;10038483;29;20260;-81
2022/10/18 13:53:03;;;;;;;14.33;9.90;;;13.70;99.90;;;;;;10051376;29;20312;-81
2022/10/18 13:58:17;;;;;;;15.77;10.47;;;13.70;99.90;;;;;;10032680;29;20751;-81
2022/10/18 14:03:48;;;;;;;18.07;11.17;;;13.60;99.90;;;;;;10037628;29;20760;-83
2022/10/18 14:09:07;;;;;;;14.67;10.07;;;13.60;99.90;;;;;;10055797;29;20305;-82
2022/10/18 14:14:44;;;;;;;13.73;10.13;;;13.60;99.90;;;;;;10037970;29;20232;-83
2022/10/18 14:20:03;;;;;;;18.30;10.80;;;13.60;99.90;;;;;;10052975;29;20249;-83
2022/10/18 14:25:28;;;;;;;19.53;11.87;;;13.60;99.90;;;;;;10044679;29;20240;-83
2022/10/18 14:30:31;;;;;;;19.53;12.30;;;13.50;99.90;;;;;;10055965;29;20312;-82
2022/10/18 14:35:34;;;;;;;19.23;13.57;;;13.50;99.90;;;;;;10054875;29;20233;-82
2022/10/18 14:40:39;;;;;;;19.67;11.40;;;13.40;99.90;;;;;;10045492;29;20233;-82
2022/10/18 14:45:42;;;;;;;24.67;13.70;;;13.40;99.90;;;;;;10022539;29;20310;-82
2022/10/18 14:50:58;;;;;;;18.77;13.57;;;13.30;99.90;;;;;;10039777;29;20230;-82
2022/10/18 14:56:04;;;;;;;30.53;18.87;;;13.30;99.90;;;;;;10040427;29;20780;-81
2022/10/18 15:01:06;;;;;;;35.10;19.00;;;13.30;99.90;;;;;;10053891;29;20690;-80
2022/10/18 15:06:19;;;;;;;24.10;16.07;;;13.40;99.90;;;;;;10053499;29;20264;-81
2022/10/18 15:11:22;;;;;;;29.37;16.97;;;13.40;99.90;;;;;;10053470;29;20736;-81
2022/10/18 15:16:28;;;;;;;22.63;16.07;;;13.50;99.90;;;;;;10053781;29;20236;-81
2022/10/18 15:21:32;;;;;;;25.47;17.10;;;13.60;99.90;;;;;;10053615;29;20241;-81
2022/10/18 15:26:34;;;;;;;33.13;21.67;;;14.10;99.90;;;;;;10053086;29;20341;-81
2022/10/18 15:31:41;;;;;;;22.40;15.90;;;13.70;99.90;;;;;;10053681;29;20281;-80
2022/10/18 15:36:45;;;;;;;22.17;14.50;;;14.00;99.90;;;;;;10054205;29;20703;-81
2022/10/18 15:41:59;;;;;;;22.93;16.23;;;13.70;99.90;;;;;;10053432;29;20301;-81
2022/10/18 15:47:11;;;;;;;25.00;15.97;;;13.70;99.90;;;;;;10052499;29;20688;-82
2022/10/18 15:52:30;;;;;;;23.43;16.30;;;13.80;99.90;;;;;;10165780;23;20236;-96
2022/10/18 15:57:39;;;;;;;21.40;15.13;;;13.90;99.90;;;;;;10123483;29;20208;-96
2022/10/18 16:02:41;;;;;;;19.93;14.27;;;13.70;99.90;;;;;;10126255;29;20212;-95
2022/10/18 16:07:44;;;;;;;19.10;13.80;;;13.70;99.90;;;;;;10143938;29;20222;-96
2022/10/18 16:12:46;;;;;;;18.93;13.70;;;14.00;99.90;;;;;;10128107;29;20214;-96
2022/10/18 16:17:49;;;;;;;17.40;12.10;;;13.70;99.90;;;;;;10126720;29;20204;-92
2022/10/18 16:22:52;;;;;;;16.03;12.23;;;15.20;99.90;;;;;;10110358;29;20799;-91
2022/10/18 16:27:54;;;;;;;17.63;12.80;;;13.90;99.90;;;;;;10111766;29;20318;-91
2022/10/18 16:32:57;;;;;;;13.67;10.10;;;13.80;99.90;;;;;;10095068;29;20248;-91
2022/10/18 16:37:59;;;;;;;14.40;10.60;;;13.80;99.90;;;;;;10127242;29;20228;-92
2022/10/18 16:43:01;;;;;;;17.63;11.67;;;13.70;99.90;;;;;;10110184;29;20232;-92
2022/10/18 16:48:04;;;;;;;14.37;10.87;;;13.60;99.90;;;;;;10121237;29;20706;-92
2022/10/18 16:53:07;;;;;;;17.83;11.43;;;13.60;99.90;;;;;;10111274;29;20311;-93
2022/10/18 16:58:19;;;;;;;17.10;10.77;;;13.80;99.90;;;;;;10102267;29;20231;-93
2022/10/18 17:03:23;;;;;;;15.93;11.53;;;13.90;99.90;;;;;;10118461;29;20256;-92
2022/10/18 17:08:26;;;;;;;16.60;12.93;;;14.00;99.90;;;;;;10120698;29;20256;-93
2022/10/18 17:13:29;;;;;;;17.00;13.20;;;15.40;99.90;;;;;;10103670;29;20244;-93
2022/10/18 17:18:31;;;;;;;19.20;12.87;;;16.60;99.90;;;;;;10116925;29;20244;-91
2022/10/18 17:23:34;;;;;;;18.53;13.53;;;15.90;99.90;;;;;;10120474;29;20288;-91
2022/10/18 17:28:37;;;;;;;18.60;12.50;;;16.00;99.90;;;;;;10119592;29;20323;-92
2022/10/18 17:33:40;;;;;;;18.40;11.90;;;14.90;99.90;;;;;;10125180;29;20220;-92
2022/10/18 17:38:42;;;;;;;15.83;11.13;;;14.80;99.90;;;;;;10093450;29;20204;-95
2022/10/18 17:43:46;;;;;;;15.47;11.00;;;13.90;99.90;;;;;;10098217;29;20205;-94
2022/10/18 17:48:49;;;;;;;16.67;12.23;;;13.70;99.90;;;;;;10114349;29;20268;-94
2022/10/18 17:53:53;;;;;;;20.87;11.13;;;15.60;99.90;;;;;;10118673;29;20232;-96
2022/10/18 17:58:55;;;;;;;12.67;9.60;;;14.40;99.90;;;;;;10120726;29;20219;-93
2022/10/18 18:04:00;;;;;;;15.47;8.90;;;13.60;99.90;;;;;;10105265;29;20212;-94
2022/10/18 18:09:06;;;;;;;10.90;7.90;;;13.10;99.90;;;;;;10117560;29;20263;-95
2022/10/18 18:14:10;;;;;;;15.13;10.47;;;13.40;99.90;;;;;;10101503;29;20272;-94
2022/10/18 18:19:14;;;;;;;12.43;8.73;;;13.70;99.90;;;;;;10107394;29;20271;-93
2022/10/18 18:24:23;;;;;;;10.07;8.73;;;13.80;99.90;;;;;;10106712;29;20205;-95
2022/10/18 18:29:26;;;;;;;12.60;8.77;;;13.70;99.90;;;;;;10111875;29;20316;-94
2022/10/18 18:34:29;;;;;;;13.70;8.63;;;13.60;99.90;;;;;;10102362;29;20264;-94
2022/10/18 18:39:34;;;;;;;15.63;9.80;;;13.70;99.90;;;;;;10096623;29;20209;-94
2022/10/18 18:44:37;;;;;;;23.53;13.57;;;13.10;99.90;;;;;;10105255;29;20252;-95
2022/10/18 18:49:39;;;;;;;33.33;15.17;;;12.70;99.90;;;;;;10092526;29;20267;-94
2022/10/18 18:54:42;;;;;;;15.23;11.83;;;12.60;99.90;;;;;;10100106;29;20308;-94
2022/10/18 18:59:44;;;;;;;16.10;11.90;;;12.50;99.90;;;;;;10096334;29;20223;-95
2022/10/18 19:04:47;;;;;;;14.07;11.00;;;12.30;99.90;;;;;;10108334;29;20209;-94
2022/10/18 19:09:49;;;;;;;15.40;11.60;;;12.20;99.90;;;;;;10110820;29;20252;-94
2022/10/18 19:14:52;;;;;;;16.67;12.93;;;12.10;99.90;;;;;;10108962;29;20218;-94
2022/10/18 19:19:54;;;;;;;23.00;14.47;;;12.10;99.90;;;;;;10114196;29;20275;-94
2022/10/18 19:24:56;;;;;;;18.70;12.17;;;11.90;99.90;;;;;;10118369;29;20258;-94
2022/10/18 19:29:59;;;;;;;23.17;13.47;;;11.90;99.90;;;;;;9426629;29;9999739;-93
2022/10/18 19:35:01;;;;;;;19.40;14.00;;;11.80;99.90;;;;;;10111910;29;20245;-93
2022/10/18 19:40:04;;;;;;;27.40;17.40;;;13.30;99.90;;;;;;10114535;29;20200;-94
2022/10/18 19:45:07;;;;;;;26.73;14.43;;;12.30;99.90;;;;;;10101230;29;20206;-96
2022/10/18 19:50:10;;;;;;;21.80;14.60;;;11.70;99.90;;;;;;10116334;29;20269;-94
2022/10/18 19:55:12;;;;;;;26.27;15.03;;;11.60;99.90;;;;;;10093488;29;20294;-94
2022/10/18 20:00:15;;;;;;;21.47;14.77;;;11.60;99.90;;;;;;10090019;29;20213;-94
2022/10/18 20:05:20;;;;;;;29.67;16.43;;;11.40;99.90;;;;;;10078070;29;20219;-93
2022/10/18 20:10:23;;;;;;;22.70;14.83;;;11.40;99.90;;;;;;10093313;29;20297;-94
2022/10/18 20:15:26;;;;;;;24.27;14.83;;;11.40;99.90;;;;;;10056589;29;20228;-95
2022/10/18 20:20:29;;;;;;;21.63;14.50;;;11.30;99.90;;;;;;10088993;29;20209;-94
2022/10/18 20:25:31;;;;;;;21.97;15.40;;;11.40;99.90;;;;;;10088280;29;20283;-93
2022/10/18 20:30:34;;;;;;;23.57;15.80;;;11.20;99.90;;;;;;10090543;29;20230;-93
2022/10/18 20:35:36;;;;;;;25.43;14.63;;;11.10;99.90;;;;;;10091078;29;20209;-94
2022/10/18 20:40:39;;;;;;;24.17;15.67;;;11.00;99.90;;;;;;10090528;29;20270;-93
2022/10/18 20:45:41;;;;;;;20.03;14.33;;;11.10;99.90;;;;;;10073517;29;20225;-93
2022/10/18 20:50:44;;;;;;;24.60;15.33;;;11.00;99.90;;;;;;10093174;29;20256;-93
2022/10/18 20:55:48;;;;;;;24.70;14.63;;;10.90;99.90;;;;;;10114056;29;20209;-93
2022/10/18 21:00:51;;;;;;;22.33;14.50;;;10.90;99.90;;;;;;10128293;29;20292;-94
2022/10/18 21:05:54;;;;;;;25.93;15.00;;;10.80;99.90;;;;;;10114092;29;20209;-93
2022/10/18 21:11:00;;;;;;;27.50;15.73;;;;;;;;;;10111835;29;20235;-92
2022/10/18 21:16:03;;;;;;;24.27;14.90;;;;;;;;;;10108993;29;20228;-94
2022/10/18 21:21:32;;;;;;;28.53;17.63;;;;;;;;;;10129235;29;20645;-93
2022/10/18 21:26:35;;;;;;;29.20;17.73;;;;;;;;;;10093460;29;20764;-93
2022/10/18 21:31:39;;;;;;;23.67;16.37;;;;;;;;;;10074523;29;20264;-94
2022/10/18 21:36:43;;;;;;;30.13;17.17;;;;;;;;;;10069962;29;20236;-93
2022/10/18 21:41:46;;;;;;;22.30;15.73;;;;;;;;;;10114652;29;20248;-93
2022/10/18 21:46:49;;;;;;;27.67;15.60;;;;;;;;;;10110512;29;20240;-93
2022/10/18 21:51:52;;;;;;;22.47;14.73;;;;;;;;;;10103461;29;20299;-94
2022/10/18 21:56:55;;;;;;;21.07;13.30;;;;;;;;;;10119024;29;20240;-94
2022/10/18 22:02:00;;;;;;;19.20;13.10;;;;;;;;;;10119081;29;20312;-94
2022/10/18 22:07:03;;;;;;;20.00;12.33;;;;;;;;;;10103364;29;20213;-93
2022/10/18 22:12:06;;;;;;;21.07;13.50;;;;;;;;;;10135577;29;20232;-92
2022/10/18 22:17:12;;;;;;;20.40;13.00;;;;;;;;;;10133429;29;20617;-94
2022/10/18 22:22:15;;;;;;;22.77;14.80;;;;;;;;;;10118217;29;20686;-93
2022/10/18 22:27:17;;;;;;;17.10;12.37;;;;;;;;;;10118659;29;21048;-93
2022/10/18 22:32:20;;;;;;;27.93;13.37;;;;;;;;;;10105928;29;20246;-94
2022/10/18 22:37:23;;;;;;;19.63;12.83;;;;;;;;;;10134576;29;20244;-94
2022/10/18 22:42:26;;;;;;;21.83;13.90;;;;;;;;;;10101968;29;20246;-93
2022/10/18 22:47:29;;;;;;;20.03;13.90;;;;;;;;;;10116143;29;20264;-94
2022/10/18 22:52:31;;;;;;;25.60;14.97;;;10.10;99.90;;;;;;10100570;29;20256;-94
2022/10/18 22:57:34;;;;;;;23.00;15.10;;;10.30;99.90;;;;;;10133715;29;20236;-94
2022/10/18 23:02:37;;;;;;;20.50;13.97;;;10.00;99.90;;;;;;10101343;29;20221;-94
2022/10/18 23:07:39;;;;;;;23.67;13.63;;;10.20;99.90;;;;;;10116421;29;20269;-94
2022/10/18 23:12:42;;;;;;;23.70;13.57;;;10.20;99.90;;;;;;10116072;29;20285;-93
2022/10/18 23:17:44;;;;;;;18.70;13.67;;;10.30;99.90;;;;;;10133053;29;20572;-93
2022/10/18 23:22:47;;;;;;;20.60;13.93;;;10.90;99.90;;;;;;10101520;29;20943;-94
2022/10/18 23:27:49;;;;;;;26.70;14.07;;;10.50;99.90;;;;;;10115724;29;20317;-93
2022/10/18 23:32:51;;;;;;;22.00;13.67;;;10.50;99.90;;;;;;10132554;29;20236;-94
2022/10/18 23:37:54;;;;;;;27.07;15.80;;;10.70;99.90;;;;;;10115479;29;20284;-95
2022/10/18 23:42:56;;;;;;;22.03;14.13;;;12.20;99.90;;;;;;10115879;29;20256;-93
2022/10/18 23:47:59;;;;;;;31.27;15.47;;;;;;;;;;10131699;29;20251;-92
2022/10/18 23:53:02;;;;;;;21.30;15.10;;;11.90;99.90;;;;;;10114880;29;20268;-93
2022/10/18 23:58:05;;;;;;;24.97;15.03;;;12.10;99.90;;;;;;10098605;29;20216;-93
